sensor_id;sensor_type;location;lat;lon;timestamp;temperature;humidity
12446;DHT22;6287;50.984;7.022;2023-12-22T00:01:11;4.90;99.90
12446;DHT22;6287;50.984;7.022;2023-12-22T00:03:43;4.90;99.90
12446;DHT22;6287;50.984;7.022;2023-12-22T00:06:12;4.80;99.90
12446;DHT22;6287;50.984;7.022;2023-12-22T00:08:38;4.60;99.90
12446;DHT22;6287;50.984;7.022;2023-12-22T00:11:04;4.70;99.90
12446;DHT22;6287;50.984;7.022;2023-12-22T00:13:29;4.60;99.90
12446;DHT22;6287;50.984;7.022;2023-12-22T00:15:55;4.60;99.90
12446;DHT22;6287;50.984;7.022;2023-12-22T00:18:21;4.60;99.90
12446;DHT22;6287;50.984;7.022;2023-12-22T00:20:49;4.60;99.90
12446;DHT22;6287;50.984;7.022;2023-12-22T00:23:14;4.60;99.90
12446;DHT22;6287;50.984;7.022;2023-12-22T00:25:40;4.60;99.90
12446;DHT22;6287;50.984;7.022;2023-12-22T00:28:05;4.60;99.90
12446;DHT22;6287;50.984;7.022;2023-12-22T00:33:02;4.60;99.90
12446;DHT22;6287;50.984;7.022;2023-12-22T00:35:28;4.60;99.90
12446;DHT22;6287;50.984;7.022;2023-12-22T00:37:53;4.70;99.90
12446;DHT22;6287;50.984;7.022;2023-12-22T00:40:19;4.70;99.90
12446;DHT22;6287;50.984;7.022;2023-12-22T00:42:44;4.80;99.90
12446;DHT22;6287;50.984;7.022;2023-12-22T00:45:10;5.50;99.90
12446;DHT22;6287;50.984;7.022;2023-12-22T00:47:36;4.90;99.90
12446;DHT22;6287;50.984;7.022;2023-12-22T00:50:05;4.90;99.90
12446;DHT22;6287;50.984;7.022;2023-12-22T00:52:31;4.90;99.90
12446;DHT22;6287;50.984;7.022;2023-12-22T00:57:23;5.00;99.90
12446;DHT22;6287;50.984;7.022;2023-12-22T00:59:51;5.00;99.90
12446;DHT22;6287;50.984;7.022;2023-12-22T01:02:19;5.00;99.90
12446;DHT22;6287;50.984;7.022;2023-12-22T01:04:47;5.10;99.90
12446;DHT22;6287;50.984;7.022;2023-12-22T01:07:12;5.20;99.90
12446;DHT22;6287;50.984;7.022;2023-12-22T01:09:39;5.40;99.90
12446;DHT22;6287;50.984;7.022;2023-12-22T01:12:05;5.20;99.90
12446;DHT22;6287;50.984;7.022;2023-12-22T01:14:33;5.30;99.90
12446;DHT22;6287;50.984;7.022;2023-12-22T01:17:01;6.50;99.90
12446;DHT22;6287;50.984;7.022;2023-12-22T01:19:27;5.30;99.90
12446;DHT22;6287;50.984;7.022;2023-12-22T01:21:52;5.30;99.90
12446;DHT22;6287;50.984;7.022;2023-12-22T01:24:18;5.30;99.90
12446;DHT22;6287;50.984;7.022;2023-12-22T01:26:46;5.40;99.90
12446;DHT22;6287;50.984;7.022;2023-12-22T01:29:12;5.40;99.90
12446;DHT22;6287;50.984;7.022;2023-12-22T01:31:37;5.40;99.90
12446;DHT22;6287;50.984;7.022;2023-12-22T01:34:03;5.40;99.90
12446;DHT22;6287;50.984;7.022;2023-12-22T01:36:28;5.40;99.90
12446;DHT22;6287;50.984;7.022;2023-12-22T01:38:54;5.40;99.90
12446;DHT22;6287;50.984;7.022;2023-12-22T01:41:22;5.40;99.90
12446;DHT22;6287;50.984;7.022;2023-12-22T01:43:48;5.50;99.90
12446;DHT22;6287;50.984;7.022;2023-12-22T01:46:13;5.50;99.90
12446;DHT22;6287;50.984;7.022;2023-12-22T01:48:41;5.50;99.90
12446;DHT22;6287;50.984;7.022;2023-12-22T01:51:07;5.50;99.90
12446;DHT22;6287;50.984;7.022;2023-12-22T01:53:36;5.50;99.90
12446;DHT22;6287;50.984;7.022;2023-12-22T01:56:02;8.40;99.90
12446;DHT22;6287;50.984;7.022;2023-12-22T01:58:29;5.40;99.90
12446;DHT22;6287;50.984;7.022;2023-12-22T02:00:58;5.40;99.90
12446;DHT22;6287;50.984;7.022;2023-12-22T02:03:24;6.00;99.90
12446;DHT22;6287;50.984;7.022;2023-12-22T02:05:52;5.40;99.90
12446;DHT22;6287;50.984;7.022;2023-12-22T02:08:18;5.90;99.90
12446;DHT22;6287;50.984;7.022;2023-12-22T02:10:47;5.50;99.90
12446;DHT22;6287;50.984;7.022;2023-12-22T02:13:12;5.40;99.90
12446;DHT22;6287;50.984;7.022;2023-12-22T02:15:41;5.40;99.90
12446;DHT22;6287;50.984;7.022;2023-12-22T02:18:24;5.40;99.90
12446;DHT22;6287;50.984;7.022;2023-12-22T02:20:52;5.40;99.90
12446;DHT22;6287;50.984;7.022;2023-12-22T02:23:21;5.40;99.90
12446;DHT22;6287;50.984;7.022;2023-12-22T02:25:46;5.30;99.90
12446;DHT22;6287;50.984;7.022;2023-12-22T02:28:17;5.30;99.90
12446;DHT22;6287;50.984;7.022;2023-12-22T02:30:54;5.30;99.90
12446;DHT22;6287;50.984;7.022;2023-12-22T02:33:22;5.30;99.90
12446;DHT22;6287;50.984;7.022;2023-12-22T02:35:58;5.30;99.90
12446;DHT22;6287;50.984;7.022;2023-12-22T02:38:28;5.30;99.90
12446;DHT22;6287;50.984;7.022;2023-12-22T02:40:55;5.40;99.90
12446;DHT22;6287;50.984;7.022;2023-12-22T02:43:21;5.40;99.90
12446;DHT22;6287;50.984;7.022;2023-12-22T02:45:50;5.40;99.90
12446;DHT22;6287;50.984;7.022;2023-12-22T02:48:16;5.40;99.90
12446;DHT22;6287;50.984;7.022;2023-12-22T02:50:42;5.40;99.90
12446;DHT22;6287;50.984;7.022;2023-12-22T02:53:07;5.40;99.90
12446;DHT22;6287;50.984;7.022;2023-12-22T02:55:33;5.40;99.90
12446;DHT22;6287;50.984;7.022;2023-12-22T02:57:59;5.40;99.90
12446;DHT22;6287;50.984;7.022;2023-12-22T03:00:24;5.40;99.90
12446;DHT22;6287;50.984;7.022;2023-12-22T03:02:52;5.40;99.90
12446;DHT22;6287;50.984;7.022;2023-12-22T03:05:20;5.50;99.90
12446;DHT22;6287;50.984;7.022;2023-12-22T03:07:48;5.50;99.90
12446;DHT22;6287;50.984;7.022;2023-12-22T03:10:14;5.50;99.90
12446;DHT22;6287;50.984;7.022;2023-12-22T03:12:41;5.50;99.90
12446;DHT22;6287;50.984;7.022;2023-12-22T03:17:36;5.50;99.90
12446;DHT22;6287;50.984;7.022;2023-12-22T03:20:04;5.50;99.90
12446;DHT22;6287;50.984;7.022;2023-12-22T03:22:32;5.50;99.90
12446;DHT22;6287;50.984;7.022;2023-12-22T03:24:57;5.50;99.90
12446;DHT22;6287;50.984;7.022;2023-12-22T03:27:28;5.40;99.90
12446;DHT22;6287;50.984;7.022;2023-12-22T03:29:53;5.50;99.90
12446;DHT22;6287;50.984;7.022;2023-12-22T03:32:20;5.50;99.90
12446;DHT22;6287;50.984;7.022;2023-12-22T03:34:45;5.50;99.90
12446;DHT22;6287;50.984;7.022;2023-12-22T03:37:11;5.50;99.90
12446;DHT22;6287;50.984;7.022;2023-12-22T03:39:37;5.50;99.90
12446;DHT22;6287;50.984;7.022;2023-12-22T03:42:05;5.50;99.90
12446;DHT22;6287;50.984;7.022;2023-12-22T03:44:31;5.50;99.90
12446;DHT22;6287;50.984;7.022;2023-12-22T03:46:56;5.60;99.90
12446;DHT22;6287;50.984;7.022;2023-12-22T03:49:22;5.70;99.90
12446;DHT22;6287;50.984;7.022;2023-12-22T03:51:48;5.60;99.90
12446;DHT22;6287;50.984;7.022;2023-12-22T03:56:45;5.70;99.90
12446;DHT22;6287;50.984;7.022;2023-12-22T03:59:10;5.60;99.90
12446;DHT22;6287;50.984;7.022;2023-12-22T04:04:07;5.70;99.90
12446;DHT22;6287;50.984;7.022;2023-12-22T04:06:33;5.60;99.90
12446;DHT22;6287;50.984;7.022;2023-12-22T04:09:03;5.70;99.90
12446;DHT22;6287;50.984;7.022;2023-12-22T04:11:34;5.60;99.90
12446;DHT22;6287;50.984;7.022;2023-12-22T04:14:02;5.60;99.90
12446;DHT22;6287;50.984;7.022;2023-12-22T04:16:30;5.70;99.90
12446;DHT22;6287;50.984;7.022;2023-12-22T04:18:56;5.70;99.90
12446;DHT22;6287;50.984;7.022;2023-12-22T04:21:21;5.80;99.90
12446;DHT22;6287;50.984;7.022;2023-12-22T04:23:47;5.80;99.90
12446;DHT22;6287;50.984;7.022;2023-12-22T04:26:12;5.80;99.90
12446;DHT22;6287;50.984;7.022;2023-12-22T04:28:38;5.90;99.90
12446;DHT22;6287;50.984;7.022;2023-12-22T04:31:04;5.90;99.90
12446;DHT22;6287;50.984;7.022;2023-12-22T04:33:31;5.90;99.90
12446;DHT22;6287;50.984;7.022;2023-12-22T04:35:57;6.00;99.90
12446;DHT22;6287;50.984;7.022;2023-12-22T04:38:23;6.00;99.90
12446;DHT22;6287;50.984;7.022;2023-12-22T04:40:50;6.00;99.90
12446;DHT22;6287;50.984;7.022;2023-12-22T04:43:18;6.00;99.90
12446;DHT22;6287;50.984;7.022;2023-12-22T04:45:47;6.10;99.90
12446;DHT22;6287;50.984;7.022;2023-12-22T04:48:14;6.10;99.90
12446;DHT22;6287;50.984;7.022;2023-12-22T04:50:40;6.10;99.90
12446;DHT22;6287;50.984;7.022;2023-12-22T04:53:08;6.10;99.90
12446;DHT22;6287;50.984;7.022;2023-12-22T04:55:36;6.20;99.90
12446;DHT22;6287;50.984;7.022;2023-12-22T04:58:06;6.20;99.90
12446;DHT22;6287;50.984;7.022;2023-12-22T05:00:34;6.30;99.90
12446;DHT22;6287;50.984;7.022;2023-12-22T05:03:02;6.30;99.90
12446;DHT22;6287;50.984;7.022;2023-12-22T05:05:28;6.30;99.90
12446;DHT22;6287;50.984;7.022;2023-12-22T05:07:56;6.40;99.90
12446;DHT22;6287;50.984;7.022;2023-12-22T05:10:25;6.40;99.90
12446;DHT22;6287;50.984;7.022;2023-12-22T05:12:53;6.40;99.90
12446;DHT22;6287;50.984;7.022;2023-12-22T05:15:19;6.50;99.90
12446;DHT22;6287;50.984;7.022;2023-12-22T05:17:45;6.40;99.90
12446;DHT22;6287;50.984;7.022;2023-12-22T05:20:10;6.50;99.90
12446;DHT22;6287;50.984;7.022;2023-12-22T05:22:39;6.50;99.90
12446;DHT22;6287;50.984;7.022;2023-12-22T05:25:06;6.50;99.90
12446;DHT22;6287;50.984;7.022;2023-12-22T05:27:31;6.50;99.90
12446;DHT22;6287;50.984;7.022;2023-12-22T05:29:57;6.60;99.90
12446;DHT22;6287;50.984;7.022;2023-12-22T05:32:29;6.70;99.90
12446;DHT22;6287;50.984;7.022;2023-12-22T05:34:57;6.70;99.90
12446;DHT22;6287;50.984;7.022;2023-12-22T05:37:23;6.70;99.90
12446;DHT22;6287;50.984;7.022;2023-12-22T05:39:51;6.80;99.90
12446;DHT22;6287;50.984;7.022;2023-12-22T05:42:19;6.80;99.90
12446;DHT22;6287;50.984;7.022;2023-12-22T05:44:44;6.90;99.90
12446;DHT22;6287;50.984;7.022;2023-12-22T05:47:18;6.90;99.90
12446;DHT22;6287;50.984;7.022;2023-12-22T05:49:44;7.00;99.90
12446;DHT22;6287;50.984;7.022;2023-12-22T05:52:12;7.10;99.90
12446;DHT22;6287;50.984;7.022;2023-12-22T05:54:38;7.10;99.90
12446;DHT22;6287;50.984;7.022;2023-12-22T05:57:06;7.20;99.90
12446;DHT22;6287;50.984;7.022;2023-12-22T05:59:33;7.30;99.90
12446;DHT22;6287;50.984;7.022;2023-12-22T06:02:02;7.30;99.90
12446;DHT22;6287;50.984;7.022;2023-12-22T06:04:28;7.30;99.90
12446;DHT22;6287;50.984;7.022;2023-12-22T06:06:54;7.40;99.90
12446;DHT22;6287;50.984;7.022;2023-12-22T06:09:19;7.30;99.90
12446;DHT22;6287;50.984;7.022;2023-12-22T06:11:46;7.30;99.90
12446;DHT22;6287;50.984;7.022;2023-12-22T06:14:12;7.40;99.90
12446;DHT22;6287;50.984;7.022;2023-12-22T06:16:37;7.40;99.90
12446;DHT22;6287;50.984;7.022;2023-12-22T06:19:03;7.40;99.90
12446;DHT22;6287;50.984;7.022;2023-12-22T06:21:29;7.40;99.90
12446;DHT22;6287;50.984;7.022;2023-12-22T06:23:54;7.50;99.90
12446;DHT22;6287;50.984;7.022;2023-12-22T06:26:24;7.50;99.90
12446;DHT22;6287;50.984;7.022;2023-12-22T06:28:50;7.60;99.90
12446;DHT22;6287;50.984;7.022;2023-12-22T06:31:18;7.60;99.90
12446;DHT22;6287;50.984;7.022;2023-12-22T06:33:44;7.50;99.90
12446;DHT22;6287;50.984;7.022;2023-12-22T06:36:23;7.50;99.90
12446;DHT22;6287;50.984;7.022;2023-12-22T06:38:51;7.50;99.90
12446;DHT22;6287;50.984;7.022;2023-12-22T06:41:28;7.50;99.90
12446;DHT22;6287;50.984;7.022;2023-12-22T06:43:55;7.60;99.90
12446;DHT22;6287;50.984;7.022;2023-12-22T06:46:28;7.50;99.90
12446;DHT22;6287;50.984;7.022;2023-12-22T06:48:57;7.60;99.90
12446;DHT22;6287;50.984;7.022;2023-12-22T06:51:26;7.60;99.90
12446;DHT22;6287;50.984;7.022;2023-12-22T06:53:53;7.60;99.90
12446;DHT22;6287;50.984;7.022;2023-12-22T06:56:20;7.70;99.90
12446;DHT22;6287;50.984;7.022;2023-12-22T06:58:47;7.70;99.90
12446;DHT22;6287;50.984;7.022;2023-12-22T07:04:00;7.70;99.90
12446;DHT22;6287;50.984;7.022;2023-12-22T07:06:30;7.70;99.90
12446;DHT22;6287;50.984;7.022;2023-12-22T07:11:42;7.70;99.90
12446;DHT22;6287;50.984;7.022;2023-12-22T07:14:08;7.60;99.90
12446;DHT22;6287;50.984;7.022;2023-12-22T07:16:35;7.60;99.90
12446;DHT22;6287;50.984;7.022;2023-12-22T07:19:01;7.50;99.90
12446;DHT22;6287;50.984;7.022;2023-12-22T07:21:27;7.40;99.90
12446;DHT22;6287;50.984;7.022;2023-12-22T07:23:54;8.40;99.90
12446;DHT22;6287;50.984;7.022;2023-12-22T07:26:23;7.40;99.90
12446;DHT22;6287;50.984;7.022;2023-12-22T07:28:49;7.40;99.90
12446;DHT22;6287;50.984;7.022;2023-12-22T07:31:15;7.40;99.90
12446;DHT22;6287;50.984;7.022;2023-12-22T07:33:43;7.30;99.90
12446;DHT22;6287;50.984;7.022;2023-12-22T07:36:15;7.30;99.90
12446;DHT22;6287;50.984;7.022;2023-12-22T07:38:41;7.20;99.90
12446;DHT22;6287;50.984;7.022;2023-12-22T07:41:10;7.10;99.90
12446;DHT22;6287;50.984;7.022;2023-12-22T07:43:36;6.90;99.90
12446;DHT22;6287;50.984;7.022;2023-12-22T07:46:17;6.80;99.90
12446;DHT22;6287;50.984;7.022;2023-12-22T07:48:45;6.70;99.90
12446;DHT22;6287;50.984;7.022;2023-12-22T07:51:13;6.70;99.90
12446;DHT22;6287;50.984;7.022;2023-12-22T07:53:38;6.60;99.90
12446;DHT22;6287;50.984;7.022;2023-12-22T07:56:09;6.60;99.90
12446;DHT22;6287;50.984;7.022;2023-12-22T07:58:36;6.60;99.90
12446;DHT22;6287;50.984;7.022;2023-12-22T08:01:02;6.50;99.90
12446;DHT22;6287;50.984;7.022;2023-12-22T08:03:28;6.50;99.90
12446;DHT22;6287;50.984;7.022;2023-12-22T08:05:58;6.50;99.90
12446;DHT22;6287;50.984;7.022;2023-12-22T08:08:24;6.50;99.90
12446;DHT22;6287;50.984;7.022;2023-12-22T08:10:51;6.60;99.90
12446;DHT22;6287;50.984;7.022;2023-12-22T08:13:18;6.60;99.90
12446;DHT22;6287;50.984;7.022;2023-12-22T08:15:44;6.60;99.90
12446;DHT22;6287;50.984;7.022;2023-12-22T08:18:12;6.60;99.90
12446;DHT22;6287;50.984;7.022;2023-12-22T08:20:38;6.70;99.90
12446;DHT22;6287;50.984;7.022;2023-12-22T08:23:08;6.70;99.90
12446;DHT22;6287;50.984;7.022;2023-12-22T08:25:34;6.70;99.90
12446;DHT22;6287;50.984;7.022;2023-12-22T08:28:04;6.80;99.90
12446;DHT22;6287;50.984;7.022;2023-12-22T08:30:33;6.90;99.90
12446;DHT22;6287;50.984;7.022;2023-12-22T08:32:59;7.00;99.90
12446;DHT22;6287;50.984;7.022;2023-12-22T08:35:24;7.00;99.90
12446;DHT22;6287;50.984;7.022;2023-12-22T08:37:52;7.10;99.90
12446;DHT22;6287;50.984;7.022;2023-12-22T08:40:18;7.30;99.90
12446;DHT22;6287;50.984;7.022;2023-12-22T08:42:53;7.30;99.90
12446;DHT22;6287;50.984;7.022;2023-12-22T08:45:28;7.30;99.90
12446;DHT22;6287;50.984;7.022;2023-12-22T08:47:55;7.40;99.90
12446;DHT22;6287;50.984;7.022;2023-12-22T08:50:21;7.40;99.90
12446;DHT22;6287;50.984;7.022;2023-12-22T08:52:46;7.50;99.90
12446;DHT22;6287;50.984;7.022;2023-12-22T08:55:14;7.60;99.90
12446;DHT22;6287;50.984;7.022;2023-12-22T08:57:42;7.60;99.90
12446;DHT22;6287;50.984;7.022;2023-12-22T09:00:11;7.60;99.90
12446;DHT22;6287;50.984;7.022;2023-12-22T09:02:41;7.70;99.90
12446;DHT22;6287;50.984;7.022;2023-12-22T09:05:06;7.70;99.90
12446;DHT22;6287;50.984;7.022;2023-12-22T09:07:34;7.80;99.90
12446;DHT22;6287;50.984;7.022;2023-12-22T09:10:03;7.90;99.90
12446;DHT22;6287;50.984;7.022;2023-12-22T09:12:31;7.90;99.90
12446;DHT22;6287;50.984;7.022;2023-12-22T09:14:56;8.00;99.90
12446;DHT22;6287;50.984;7.022;2023-12-22T09:17:26;8.00;99.90
12446;DHT22;6287;50.984;7.022;2023-12-22T09:19:52;8.10;99.90
12446;DHT22;6287;50.984;7.022;2023-12-22T09:22:23;8.10;99.90
12446;DHT22;6287;50.984;7.022;2023-12-22T09:24:49;8.10;99.90
12446;DHT22;6287;50.984;7.022;2023-12-22T09:27:19;8.20;99.90
12446;DHT22;6287;50.984;7.022;2023-12-22T09:29:47;8.20;99.90
12446;DHT22;6287;50.984;7.022;2023-12-22T09:32:13;8.20;99.90
12446;DHT22;6287;50.984;7.022;2023-12-22T09:34:38;8.30;99.90
12446;DHT22;6287;50.984;7.022;2023-12-22T09:37:08;8.30;99.90
12446;DHT22;6287;50.984;7.022;2023-12-22T09:39:33;8.40;99.90
12446;DHT22;6287;50.984;7.022;2023-12-22T09:41:59;8.50;99.90
12446;DHT22;6287;50.984;7.022;2023-12-22T09:44:32;8.50;99.90
12446;DHT22;6287;50.984;7.022;2023-12-22T09:46:59;8.60;99.90
12446;DHT22;6287;50.984;7.022;2023-12-22T09:49:27;8.60;99.90
12446;DHT22;6287;50.984;7.022;2023-12-22T09:51:53;8.60;99.90
12446;DHT22;6287;50.984;7.022;2023-12-22T09:54:21;8.60;99.90
12446;DHT22;6287;50.984;7.022;2023-12-22T09:56:48;8.70;99.90
12446;DHT22;6287;50.984;7.022;2023-12-22T09:59:19;8.70;99.90
12446;DHT22;6287;50.984;7.022;2023-12-22T10:01:47;8.70;99.90
12446;DHT22;6287;50.984;7.022;2023-12-22T10:04:16;8.80;99.90
12446;DHT22;6287;50.984;7.022;2023-12-22T10:06:44;8.80;99.90
12446;DHT22;6287;50.984;7.022;2023-12-22T10:09:14;8.90;99.90
12446;DHT22;6287;50.984;7.022;2023-12-22T10:11:43;8.90;99.90
12446;DHT22;6287;50.984;7.022;2023-12-22T10:14:12;8.90;99.90
12446;DHT22;6287;50.984;7.022;2023-12-22T10:16:41;9.00;99.90
12446;DHT22;6287;50.984;7.022;2023-12-22T10:19:07;9.00;99.90
12446;DHT22;6287;50.984;7.022;2023-12-22T10:21:33;9.00;99.90
12446;DHT22;6287;50.984;7.022;2023-12-22T10:24:03;9.00;99.90
12446;DHT22;6287;50.984;7.022;2023-12-22T10:26:33;9.00;99.90
12446;DHT22;6287;50.984;7.022;2023-12-22T10:28:58;9.00;99.90
12446;DHT22;6287;50.984;7.022;2023-12-22T10:31:26;9.10;99.90
12446;DHT22;6287;50.984;7.022;2023-12-22T10:33:55;9.00;99.90
12446;DHT22;6287;50.984;7.022;2023-12-22T10:36:23;9.00;99.90
12446;DHT22;6287;50.984;7.022;2023-12-22T10:38:52;8.90;99.90
12446;DHT22;6287;50.984;7.022;2023-12-22T10:41:18;9.00;99.90
12446;DHT22;6287;50.984;7.022;2023-12-22T10:43:44;9.00;99.90
12446;DHT22;6287;50.984;7.022;2023-12-22T10:46:14;9.00;99.90
12446;DHT22;6287;50.984;7.022;2023-12-22T10:48:40;9.00;99.90
12446;DHT22;6287;50.984;7.022;2023-12-22T10:51:10;9.00;99.90
12446;DHT22;6287;50.984;7.022;2023-12-22T10:53:40;9.00;99.90
12446;DHT22;6287;50.984;7.022;2023-12-22T10:56:06;9.00;99.90
12446;DHT22;6287;50.984;7.022;2023-12-22T10:58:36;9.00;99.90
12446;DHT22;6287;50.984;7.022;2023-12-22T11:01:04;9.00;99.90
12446;DHT22;6287;50.984;7.022;2023-12-22T11:03:34;9.00;99.90
12446;DHT22;6287;50.984;7.022;2023-12-22T11:06:04;8.90;99.90
12446;DHT22;6287;50.984;7.022;2023-12-22T11:08:33;8.80;99.90
12446;DHT22;6287;50.984;7.022;2023-12-22T11:11:11;8.80;99.90
12446;DHT22;6287;50.984;7.022;2023-12-22T11:13:41;8.80;99.90
12446;DHT22;6287;50.984;7.022;2023-12-22T11:16:10;8.80;99.90
12446;DHT22;6287;50.984;7.022;2023-12-22T11:18:37;8.80;99.90
12446;DHT22;6287;50.984;7.022;2023-12-22T11:21:06;8.70;99.90
12446;DHT22;6287;50.984;7.022;2023-12-22T11:23:33;8.80;99.90
12446;DHT22;6287;50.984;7.022;2023-12-22T11:26:01;8.70;99.90
12446;DHT22;6287;50.984;7.022;2023-12-22T11:28:28;8.80;99.90
12446;DHT22;6287;50.984;7.022;2023-12-22T11:30:54;8.90;99.90
12446;DHT22;6287;50.984;7.022;2023-12-22T11:33:27;8.90;99.90
12446;DHT22;6287;50.984;7.022;2023-12-22T11:35:56;9.00;99.90
12446;DHT22;6287;50.984;7.022;2023-12-22T11:38:26;9.00;99.90
12446;DHT22;6287;50.984;7.022;2023-12-22T11:40:56;9.00;99.90
12446;DHT22;6287;50.984;7.022;2023-12-22T11:43:26;9.10;99.90
12446;DHT22;6287;50.984;7.022;2023-12-22T11:45:51;9.10;99.90
12446;DHT22;6287;50.984;7.022;2023-12-22T11:48:17;9.20;99.90
12446;DHT22;6287;50.984;7.022;2023-12-22T11:50:43;9.30;99.90
12446;DHT22;6287;50.984;7.022;2023-12-22T11:56:00;9.30;99.90
12446;DHT22;6287;50.984;7.022;2023-12-22T11:58:37;9.30;99.90
12446;DHT22;6287;50.984;7.022;2023-12-22T12:01:08;9.30;99.90
12446;DHT22;6287;50.984;7.022;2023-12-22T12:04:02;9.40;99.90
12446;DHT22;6287;50.984;7.022;2023-12-22T12:09:00;9.40;99.90
12446;DHT22;6287;50.984;7.022;2023-12-22T12:14:41;9.40;99.90
12446;DHT22;6287;50.984;7.022;2023-12-22T12:17:09;9.40;99.90
12446;DHT22;6287;50.984;7.022;2023-12-22T12:19:37;9.50;99.90
12446;DHT22;6287;50.984;7.022;2023-12-22T12:22:04;9.50;99.90
12446;DHT22;6287;50.984;7.022;2023-12-22T12:24:30;9.60;99.90
12446;DHT22;6287;50.984;7.022;2023-12-22T12:26:59;9.60;99.90
12446;DHT22;6287;50.984;7.022;2023-12-22T12:29:29;9.70;99.90
12446;DHT22;6287;50.984;7.022;2023-12-22T12:32:07;9.70;99.90
12446;DHT22;6287;50.984;7.022;2023-12-22T12:34:33;9.80;99.90
12446;DHT22;6287;50.984;7.022;2023-12-22T12:37:01;9.80;99.90
12446;DHT22;6287;50.984;7.022;2023-12-22T12:39:33;9.80;99.90
12446;DHT22;6287;50.984;7.022;2023-12-22T12:42:00;9.90;99.90
12446;DHT22;6287;50.984;7.022;2023-12-22T12:44:38;9.90;99.90
12446;DHT22;6287;50.984;7.022;2023-12-22T12:47:15;10.00;99.90
12446;DHT22;6287;50.984;7.022;2023-12-22T12:49:41;10.00;99.90
12446;DHT22;6287;50.984;7.022;2023-12-22T12:52:14;10.10;99.90
12446;DHT22;6287;50.984;7.022;2023-12-22T12:54:42;10.10;99.90
12446;DHT22;6287;50.984;7.022;2023-12-22T12:57:15;10.20;99.90
12446;DHT22;6287;50.984;7.022;2023-12-22T12:59:47;10.20;99.90
12446;DHT22;6287;50.984;7.022;2023-12-22T13:02:13;10.20;99.90
12446;DHT22;6287;50.984;7.022;2023-12-22T13:04:39;10.20;99.90
12446;DHT22;6287;50.984;7.022;2023-12-22T13:07:05;10.20;99.90
12446;DHT22;6287;50.984;7.022;2023-12-22T13:09:33;10.20;99.90
12446;DHT22;6287;50.984;7.022;2023-12-22T13:12:03;10.20;99.90
12446;DHT22;6287;50.984;7.022;2023-12-22T13:14:33;10.30;99.90
12446;DHT22;6287;50.984;7.022;2023-12-22T13:16:59;10.20;99.90
12446;DHT22;6287;50.984;7.022;2023-12-22T13:19:26;10.30;99.90
12446;DHT22;6287;50.984;7.022;2023-12-22T13:21:55;10.30;99.90
12446;DHT22;6287;50.984;7.022;2023-12-22T13:24:21;10.40;99.90
12446;DHT22;6287;50.984;7.022;2023-12-22T13:26:47;10.30;99.90
12446;DHT22;6287;50.984;7.022;2023-12-22T13:29:12;10.30;99.90
12446;DHT22;6287;50.984;7.022;2023-12-22T13:31:42;10.30;99.90
12446;DHT22;6287;50.984;7.022;2023-12-22T13:34:16;10.30;99.90
12446;DHT22;6287;50.984;7.022;2023-12-22T13:36:42;10.30;99.90
12446;DHT22;6287;50.984;7.022;2023-12-22T13:39:08;10.30;99.90
12446;DHT22;6287;50.984;7.022;2023-12-22T13:41:37;10.30;99.90
12446;DHT22;6287;50.984;7.022;2023-12-22T13:44:07;10.30;99.90
12446;DHT22;6287;50.984;7.022;2023-12-22T13:46:37;10.20;99.90
12446;DHT22;6287;50.984;7.022;2023-12-22T13:49:10;10.20;99.90
12446;DHT22;6287;50.984;7.022;2023-12-22T13:51:45;10.20;99.90
12446;DHT22;6287;50.984;7.022;2023-12-22T13:54:13;10.20;99.90
12446;DHT22;6287;50.984;7.022;2023-12-22T13:56:43;10.20;99.90
12446;DHT22;6287;50.984;7.022;2023-12-22T13:59:11;10.20;99.90
12446;DHT22;6287;50.984;7.022;2023-12-22T14:01:39;10.20;99.90
12446;DHT22;6287;50.984;7.022;2023-12-22T14:04:05;10.20;99.90
12446;DHT22;6287;50.984;7.022;2023-12-22T14:06:31;10.20;99.90
12446;DHT22;6287;50.984;7.022;2023-12-22T14:08:57;10.10;99.90
12446;DHT22;6287;50.984;7.022;2023-12-22T14:11:25;10.10;99.90
12446;DHT22;6287;50.984;7.022;2023-12-22T14:13:55;10.00;99.90
12446;DHT22;6287;50.984;7.022;2023-12-22T14:16:23;9.90;99.90
12446;DHT22;6287;50.984;7.022;2023-12-22T14:18:51;9.90;99.90
12446;DHT22;6287;50.984;7.022;2023-12-22T14:21:17;9.80;99.90
12446;DHT22;6287;50.984;7.022;2023-12-22T14:23:43;9.70;99.90
12446;DHT22;6287;50.984;7.022;2023-12-22T14:26:08;9.60;99.90
12446;DHT22;6287;50.984;7.022;2023-12-22T14:28:36;9.40;99.90
12446;DHT22;6287;50.984;7.022;2023-12-22T14:31:02;9.30;99.90
12446;DHT22;6287;50.984;7.022;2023-12-22T14:33:27;9.30;99.90
12446;DHT22;6287;50.984;7.022;2023-12-22T14:35:53;9.40;99.90
12446;DHT22;6287;50.984;7.022;2023-12-22T14:38:21;9.30;99.90
12446;DHT22;6287;50.984;7.022;2023-12-22T14:40:47;9.30;99.90
12446;DHT22;6287;50.984;7.022;2023-12-22T14:43:14;9.20;99.90
12446;DHT22;6287;50.984;7.022;2023-12-22T14:45:42;9.20;99.90
12446;DHT22;6287;50.984;7.022;2023-12-22T14:48:08;9.10;99.90
12446;DHT22;6287;50.984;7.022;2023-12-22T14:50:38;9.20;99.90
12446;DHT22;6287;50.984;7.022;2023-12-22T14:53:04;9.10;99.90
12446;DHT22;6287;50.984;7.022;2023-12-22T14:55:33;9.20;99.90
12446;DHT22;6287;50.984;7.022;2023-12-22T14:57:59;9.20;99.90
12446;DHT22;6287;50.984;7.022;2023-12-22T15:00:27;9.20;99.90
12446;DHT22;6287;50.984;7.022;2023-12-22T15:02:53;9.10;99.90
12446;DHT22;6287;50.984;7.022;2023-12-22T15:05:23;9.10;99.90
12446;DHT22;6287;50.984;7.022;2023-12-22T15:07:53;9.10;99.90
12446;DHT22;6287;50.984;7.022;2023-12-22T15:10:21;9.10;99.90
12446;DHT22;6287;50.984;7.022;2023-12-22T15:12:47;9.10;99.90
12446;DHT22;6287;50.984;7.022;2023-12-22T15:15:16;9.20;99.90
12446;DHT22;6287;50.984;7.022;2023-12-22T15:17:45;9.10;99.90
12446;DHT22;6287;50.984;7.022;2023-12-22T15:20:11;9.10;99.90
12446;DHT22;6287;50.984;7.022;2023-12-22T15:22:39;9.20;99.90
12446;DHT22;6287;50.984;7.022;2023-12-22T15:25:05;9.20;99.90
12446;DHT22;6287;50.984;7.022;2023-12-22T15:27:31;9.20;99.90
12446;DHT22;6287;50.984;7.022;2023-12-22T15:29:58;9.20;99.90
12446;DHT22;6287;50.984;7.022;2023-12-22T15:32:25;9.20;99.90
12446;DHT22;6287;50.984;7.022;2023-12-22T15:34:51;11.10;99.90
12446;DHT22;6287;50.984;7.022;2023-12-22T15:37:19;9.10;99.90
12446;DHT22;6287;50.984;7.022;2023-12-22T15:39:47;9.20;99.90
12446;DHT22;6287;50.984;7.022;2023-12-22T15:42:12;9.10;99.90
12446;DHT22;6287;50.984;7.022;2023-12-22T15:44:41;9.20;99.90
12446;DHT22;6287;50.984;7.022;2023-12-22T15:47:08;9.10;99.90
12446;DHT22;6287;50.984;7.022;2023-12-22T15:49:37;9.10;99.90
12446;DHT22;6287;50.984;7.022;2023-12-22T15:52:05;9.00;99.90
12446;DHT22;6287;50.984;7.022;2023-12-22T15:54:31;9.00;99.90
12446;DHT22;6287;50.984;7.022;2023-12-22T15:56:57;9.00;99.90
12446;DHT22;6287;50.984;7.022;2023-12-22T15:59:22;9.00;99.90
12446;DHT22;6287;50.984;7.022;2023-12-22T16:01:51;8.90;99.90
12446;DHT22;6287;50.984;7.022;2023-12-22T16:04:17;8.90;99.90
12446;DHT22;6287;50.984;7.022;2023-12-22T16:06:45;9.00;99.90
12446;DHT22;6287;50.984;7.022;2023-12-22T16:09:13;9.00;99.90
12446;DHT22;6287;50.984;7.022;2023-12-22T16:11:39;8.90;99.90
12446;DHT22;6287;50.984;7.022;2023-12-22T16:14:07;9.00;99.90
12446;DHT22;6287;50.984;7.022;2023-12-22T16:16:35;9.00;99.90
12446;DHT22;6287;50.984;7.022;2023-12-22T16:19:01;9.00;99.90
12446;DHT22;6287;50.984;7.022;2023-12-22T16:21:29;9.00;99.90
12446;DHT22;6287;50.984;7.022;2023-12-22T16:23:57;9.00;99.90
12446;DHT22;6287;50.984;7.022;2023-12-22T16:26:22;9.00;99.90
12446;DHT22;6287;50.984;7.022;2023-12-22T16:28:48;9.00;99.90